Share

Providenciales, Turks Islands

Providenciales International (MBPV) Elev 16 ft | 21.77 °N, 72.27 °W | Change Station

Current weather conditions updated 7 hours ago

Thunderstorm
Thunderstorm
79 °F
Feels Like 79 °F
N
22
Wind Variable Wind from East
Gusts mph
Sunrise 6:27 AM
Sunset 7:09 PM
Moon Waning Gibbous

Today is forecast to be Cooler than yesterday.

Pressure 30.04 in
Visibility 6.2 miles
Clouds Scattered Clouds 1500 ft
Dew Point 72 °F
Humidity 78%
Rainfall 0.00 in
Snow Depth Not available.
UV 0 out of 16
Pollen Not available.
Air Quality Not available.
Flu Activity Not available.
METAR MBPV 172300Z 05017KT 9999 SCT015 27/21 Q1017

More Conditions Fewer Conditions

Pressure 30.04 in
Visibility 6.2 miles
Clouds Scattered Clouds 1500 ft
Dew Point 72 °F
Humidity 78%
Rainfall 0.00 in
Snow Depth Not available.
UV 0 out of 16
Pollen Not available.
Air Quality Not available.
Flu Activity Not available.
METAR MBPV 172300Z 05017KT 9999 SCT015 27/21 Q1017

More Conditions Fewer Conditions

10-Day Forecast

Almanac

Astronomy

Apr. 18, 2014 Rise Set
Actual Time 6:27 AM EDT 7:09 PM EDT
Civil Twilight 6:04 AM EDT 7:32 PM EDT
Nautical Twilight 5:37 AM EDT 7:59 PM EDT
Astronomical Twilight 5:10 AM EDT 8:26 PM EDT
Moon 10:36 PM EDT 9:02 AM EDT
Length of Visible Light 13h 28m
Length of Day
12h 42m
Tomorrow will be 1m 10s longer.
Waning Gibbous, 90% of the Moon is Illuminated
Today
Waning Gibbous
Apr 22
Last Quarter
Apr 29
New
May 6
First Quarter
May 14
Full

Yesterday's Extremes

Country Highs Country Lows

Community

  • SUNRISE THROUGH THE TREES.
    SUNRISE THROUGH THE TREES.
  • Dog Wood Blossoms
    Dog Wood Blossoms
  • Morning Light
    Morning Light
  • New Day
    New Day
  • Lake Michigan Sunrise
    Lake Michigan Sunrise

WunderPhotos

Upload Photos

1,702,278 photos uploaded!

WunderBlogs® & News

Nearby

Snow Depth

Not available.

Coastal Water Temperatures

Place Temperature
No Stations Reporting

Earthquake Activity

City Distance Mag. Time & Date
No recent earthquake activity has been reported nearby.
Minimum magnitude displayed is 2.5.

Nearby Weather Stations

Station Location Temp. Heat Index Dew Point Humidity Wind Precip. Elev Updated Type
The Regent Grand, Grace Bay 76.0 °F 74 °F - - ENE  at  10.0 mph 0.00 in / hr 0 ft 2:38 AM EDT Normal
Pine Cay Weather, GeekHo 77.0 °F 79 °F 69 °F 77% ESE  at  17.0 mph - / hr 20 ft 2:40 AM EDT Normal

Show More Stations Show Fewer Stations

What do you think?

We're not finished. Please let us know what you like, what you don't like, and what you are still missing.